sensor_id;sensor_type;location;lat;lon;timestamp;P1;durP1;ratioP1;P2;durP2;ratioP2
56391;SDS011;76123;53.584;9.978;2024-02-21T00:01:14;42.05;;;16.25;;
56391;SDS011;76123;53.584;9.978;2024-02-21T00:03:41;40.60;;;15.52;;
56391;SDS011;76123;53.584;9.978;2024-02-21T00:06:09;46.55;;;16.25;;
56391;SDS011;76123;53.584;9.978;2024-02-21T00:08:35;47.03;;;16.33;;
56391;SDS011;76123;53.584;9.978;2024-02-21T00:11:02;40.55;;;16.88;;
56391;SDS011;76123;53.584;9.978;2024-02-21T00:13:28;37.42;;;14.65;;
56391;SDS011;76123;53.584;9.978;2024-02-21T00:15:55;41.22;;;16.02;;
56391;SDS011;76123;53.584;9.978;2024-02-21T00:18:21;40.97;;;16.80;;
56391;SDS011;76123;53.584;9.978;2024-02-21T00:20:48;35.72;;;16.48;;
56391;SDS011;76123;53.584;9.978;2024-02-21T00:23:16;45.67;;;17.50;;
56391;SDS011;76123;53.584;9.978;2024-02-21T00:25:43;38.53;;;17.02;;
56391;SDS011;76123;53.584;9.978;2024-02-21T00:28:09;39.40;;;16.77;;
56391;SDS011;76123;53.584;9.978;2024-02-21T00:30:36;40.08;;;16.17;;
56391;SDS011;76123;53.584;9.978;2024-02-21T00:33:03;42.38;;;17.42;;
56391;SDS011;76123;53.584;9.978;2024-02-21T00:35:30;42.75;;;18.10;;
56391;SDS011;76123;53.584;9.978;2024-02-21T00:37:57;38.97;;;17.85;;
56391;SDS011;76123;53.584;9.978;2024-02-21T00:40:26;44.15;;;17.48;;
56391;SDS011;76123;53.584;9.978;2024-02-21T00:42:52;48.20;;;18.30;;
56391;SDS011;76123;53.584;9.978;2024-02-21T00:45:19;46.08;;;17.70;;
56391;SDS011;76123;53.584;9.978;2024-02-21T00:47:45;47.33;;;18.42;;
56391;SDS011;76123;53.584;9.978;2024-02-21T00:50:12;42.42;;;17.92;;
56391;SDS011;76123;53.584;9.978;2024-02-21T00:52:39;46.05;;;18.17;;
56391;SDS011;76123;53.584;9.978;2024-02-21T00:55:06;46.80;;;18.88;;
56391;SDS011;76123;53.584;9.978;2024-02-21T00:57:35;40.88;;;18.27;;
56391;SDS011;76123;53.584;9.978;2024-02-21T01:00:02;41.80;;;18.45;;
56391;SDS011;76123;53.584;9.978;2024-02-21T01:02:29;50.58;;;18.33;;
56391;SDS011;76123;53.584;9.978;2024-02-21T01:04:56;43.72;;;18.88;;
56391;SDS011;76123;53.584;9.978;2024-02-21T01:07:23;35.15;;;18.13;;
56391;SDS011;76123;53.584;9.978;2024-02-21T01:09:49;46.28;;;18.92;;
56391;SDS011;76123;53.584;9.978;2024-02-21T01:12:16;46.13;;;19.55;;
56391;SDS011;76123;53.584;9.978;2024-02-21T01:14:44;47.17;;;19.33;;
56391;SDS011;76123;53.584;9.978;2024-02-21T01:17:12;47.42;;;18.05;;
56391;SDS011;76123;53.584;9.978;2024-02-21T01:19:38;39.80;;;19.00;;
56391;SDS011;76123;53.584;9.978;2024-02-21T01:22:05;45.45;;;19.02;;
56391;SDS011;76123;53.584;9.978;2024-02-21T01:24:32;45.97;;;18.60;;
56391;SDS011;76123;53.584;9.978;2024-02-21T01:26:58;52.25;;;17.67;;
56391;SDS011;76123;53.584;9.978;2024-02-21T01:29:25;47.63;;;18.15;;
56391;SDS011;76123;53.584;9.978;2024-02-21T01:31:53;39.80;;;17.83;;
56391;SDS011;76123;53.584;9.978;2024-02-21T01:34:19;42.70;;;18.45;;
56391;SDS011;76123;53.584;9.978;2024-02-21T01:36:46;46.00;;;18.77;;
56391;SDS011;76123;53.584;9.978;2024-02-21T01:39:12;40.50;;;17.92;;
56391;SDS011;76123;53.584;9.978;2024-02-21T01:41:39;49.70;;;19.95;;
56391;SDS011;76123;53.584;9.978;2024-02-21T01:44:06;50.88;;;19.98;;
56391;SDS011;76123;53.584;9.978;2024-02-21T01:46:32;42.03;;;19.20;;
56391;SDS011;76123;53.584;9.978;2024-02-21T01:49:01;44.40;;;18.77;;
56391;SDS011;76123;53.584;9.978;2024-02-21T01:51:29;53.55;;;20.50;;
56391;SDS011;76123;53.584;9.978;2024-02-21T01:53:57;58.40;;;22.13;;
56391;SDS011;76123;53.584;9.978;2024-02-21T01:56:24;59.60;;;20.70;;
56391;SDS011;76123;53.584;9.978;2024-02-21T01:58:51;46.05;;;20.52;;
56391;SDS011;76123;53.584;9.978;2024-02-21T02:01:17;53.28;;;20.92;;
56391;SDS011;76123;53.584;9.978;2024-02-21T02:03:45;63.83;;;22.77;;
56391;SDS011;76123;53.584;9.978;2024-02-21T02:06:13;49.25;;;21.15;;
56391;SDS011;76123;53.584;9.978;2024-02-21T02:08:40;64.25;;;23.52;;
56391;SDS011;76123;53.584;9.978;2024-02-21T02:11:08;59.08;;;22.52;;
56391;SDS011;76123;53.584;9.978;2024-02-21T02:13:34;60.63;;;23.02;;
56391;SDS011;76123;53.584;9.978;2024-02-21T02:16:01;61.00;;;24.08;;
56391;SDS011;76123;53.584;9.978;2024-02-21T02:18:28;61.22;;;23.00;;
56391;SDS011;76123;53.584;9.978;2024-02-21T02:20:55;67.32;;;24.88;;
56391;SDS011;76123;53.584;9.978;2024-02-21T02:23:24;64.70;;;23.60;;
56391;SDS011;76123;53.584;9.978;2024-02-21T02:25:51;66.47;;;25.08;;
56391;SDS011;76123;53.584;9.978;2024-02-21T02:28:18;67.22;;;24.85;;
56391;SDS011;76123;53.584;9.978;2024-02-21T02:30:45;61.50;;;24.88;;
56391;SDS011;76123;53.584;9.978;2024-02-21T02:33:11;65.78;;;24.38;;
56391;SDS011;76123;53.584;9.978;2024-02-21T02:35:37;68.43;;;23.38;;
56391;SDS011;76123;53.584;9.978;2024-02-21T02:38:04;68.00;;;26.65;;
56391;SDS011;76123;53.584;9.978;2024-02-21T02:40:33;63.67;;;24.20;;
56391;SDS011;76123;53.584;9.978;2024-02-21T02:42:59;65.47;;;25.00;;
56391;SDS011;76123;53.584;9.978;2024-02-21T02:45:26;63.22;;;25.52;;
56391;SDS011;76123;53.584;9.978;2024-02-21T02:47:53;57.55;;;24.25;;
56391;SDS011;76123;53.584;9.978;2024-02-21T02:50:22;67.78;;;24.63;;
56391;SDS011;76123;53.584;9.978;2024-02-21T02:52:48;61.85;;;24.33;;
56391;SDS011;76123;53.584;9.978;2024-02-21T02:55:15;56.88;;;23.38;;
56391;SDS011;76123;53.584;9.978;2024-02-21T02:57:43;60.92;;;23.90;;
56391;SDS011;76123;53.584;9.978;2024-02-21T03:00:10;54.95;;;22.50;;
56391;SDS011;76123;53.584;9.978;2024-02-21T03:02:38;54.13;;;22.30;;
56391;SDS011;76123;53.584;9.978;2024-02-21T03:05:11;62.25;;;23.83;;
56391;SDS011;76123;53.584;9.978;2024-02-21T03:07:39;51.85;;;22.95;;
56391;SDS011;76123;53.584;9.978;2024-02-21T03:10:06;52.88;;;22.02;;
56391;SDS011;76123;53.584;9.978;2024-02-21T03:12:33;50.63;;;22.13;;
56391;SDS011;76123;53.584;9.978;2024-02-21T03:15:01;55.65;;;23.52;;
56391;SDS011;76123;53.584;9.978;2024-02-21T03:17:28;55.75;;;23.95;;
56391;SDS011;76123;53.584;9.978;2024-02-21T03:19:54;53.00;;;22.67;;
56391;SDS011;76123;53.584;9.978;2024-02-21T03:22:21;55.75;;;22.67;;
56391;SDS011;76123;53.584;9.978;2024-02-21T03:24:48;57.85;;;23.02;;
56391;SDS011;76123;53.584;9.978;2024-02-21T03:27:14;54.58;;;22.58;;
56391;SDS011;76123;53.584;9.978;2024-02-21T03:29:41;48.38;;;19.85;;
56391;SDS011;76123;53.584;9.978;2024-02-21T03:32:09;49.63;;;21.05;;
56391;SDS011;76123;53.584;9.978;2024-02-21T03:34:36;51.03;;;21.73;;
56391;SDS011;76123;53.584;9.978;2024-02-21T03:37:02;50.05;;;21.88;;
56391;SDS011;76123;53.584;9.978;2024-02-21T03:39:30;49.58;;;22.13;;
56391;SDS011;76123;53.584;9.978;2024-02-21T03:41:57;50.28;;;21.02;;
56391;SDS011;76123;53.584;9.978;2024-02-21T03:44:25;48.42;;;21.05;;
56391;SDS011;76123;53.584;9.978;2024-02-21T03:46:52;47.30;;;21.30;;
56391;SDS011;76123;53.584;9.978;2024-02-21T03:49:20;44.03;;;18.63;;
56391;SDS011;76123;53.584;9.978;2024-02-21T03:51:46;51.50;;;21.65;;
56391;SDS011;76123;53.584;9.978;2024-02-21T03:54:13;44.83;;;19.30;;
56391;SDS011;76123;53.584;9.978;2024-02-21T03:56:39;49.20;;;20.90;;
56391;SDS011;76123;53.584;9.978;2024-02-21T03:59:06;48.42;;;22.08;;
56391;SDS011;76123;53.584;9.978;2024-02-21T04:01:33;47.50;;;19.42;;
56391;SDS011;76123;53.584;9.978;2024-02-21T04:03:59;44.95;;;21.00;;
56391;SDS011;76123;53.584;9.978;2024-02-21T04:06:27;56.17;;;22.48;;
56391;SDS011;76123;53.584;9.978;2024-02-21T04:08:54;54.28;;;21.65;;
56391;SDS011;76123;53.584;9.978;2024-02-21T04:11:21;49.95;;;21.92;;
56391;SDS011;76123;53.584;9.978;2024-02-21T04:13:47;49.95;;;20.48;;
56391;SDS011;76123;53.584;9.978;2024-02-21T04:16:15;52.00;;;22.95;;
56391;SDS011;76123;53.584;9.978;2024-02-21T04:18:42;56.33;;;21.58;;
56391;SDS011;76123;53.584;9.978;2024-02-21T04:21:09;56.95;;;22.95;;
56391;SDS011;76123;53.584;9.978;2024-02-21T04:23:37;48.83;;;21.92;;
56391;SDS011;76123;53.584;9.978;2024-02-21T04:26:04;50.92;;;22.33;;
56391;SDS011;76123;53.584;9.978;2024-02-21T04:28:30;46.63;;;20.83;;
56391;SDS011;76123;53.584;9.978;2024-02-21T04:30:57;51.28;;;20.48;;
56391;SDS011;76123;53.584;9.978;2024-02-21T04:33:23;55.28;;;21.00;;
56391;SDS011;76123;53.584;9.978;2024-02-21T04:35:50;48.85;;;19.75;;
56391;SDS011;76123;53.584;9.978;2024-02-21T04:38:16;46.75;;;19.20;;
56391;SDS011;76123;53.584;9.978;2024-02-21T04:40:44;47.58;;;19.92;;
56391;SDS011;76123;53.584;9.978;2024-02-21T04:43:11;41.85;;;19.02;;
56391;SDS011;76123;53.584;9.978;2024-02-21T04:45:38;48.83;;;19.52;;
56391;SDS011;76123;53.584;9.978;2024-02-21T04:48:05;41.83;;;19.42;;
56391;SDS011;76123;53.584;9.978;2024-02-21T04:50:31;44.80;;;19.00;;
56391;SDS011;76123;53.584;9.978;2024-02-21T04:52:58;45.72;;;19.30;;
56391;SDS011;76123;53.584;9.978;2024-02-21T04:55:24;48.25;;;18.80;;
56391;SDS011;76123;53.584;9.978;2024-02-21T04:57:52;37.90;;;18.00;;
56391;SDS011;76123;53.584;9.978;2024-02-21T05:00:19;39.80;;;18.50;;
56391;SDS011;76123;53.584;9.978;2024-02-21T05:02:46;37.42;;;17.15;;
56391;SDS011;76123;53.584;9.978;2024-02-21T05:05:12;40.80;;;16.77;;
56391;SDS011;76123;53.584;9.978;2024-02-21T05:07:40;40.40;;;17.65;;
56391;SDS011;76123;53.584;9.978;2024-02-21T05:10:07;39.20;;;14.90;;
56391;SDS011;76123;53.584;9.978;2024-02-21T05:12:34;38.50;;;15.82;;
56391;SDS011;76123;53.584;9.978;2024-02-21T05:15:02;30.60;;;12.50;;
56391;SDS011;76123;53.584;9.978;2024-02-21T05:17:30;34.83;;;15.55;;
56391;SDS011;76123;53.584;9.978;2024-02-21T05:19:58;31.10;;;14.30;;
56391;SDS011;76123;53.584;9.978;2024-02-21T05:22:24;30.83;;;13.13;;
56391;SDS011;76123;53.584;9.978;2024-02-21T05:24:51;27.40;;;12.43;;
56391;SDS011;76123;53.584;9.978;2024-02-21T05:27:17;28.95;;;13.65;;
56391;SDS011;76123;53.584;9.978;2024-02-21T05:29:44;27.30;;;13.05;;
56391;SDS011;76123;53.584;9.978;2024-02-21T05:32:12;29.52;;;12.50;;
56391;SDS011;76123;53.584;9.978;2024-02-21T05:34:38;28.40;;;13.10;;
56391;SDS011;76123;53.584;9.978;2024-02-21T05:37:05;29.08;;;13.07;;
56391;SDS011;76123;53.584;9.978;2024-02-21T05:39:31;31.13;;;13.50;;
56391;SDS011;76123;53.584;9.978;2024-02-21T05:41:58;29.23;;;12.43;;
56391;SDS011;76123;53.584;9.978;2024-02-21T05:44:25;22.83;;;11.32;;
56391;SDS011;76123;53.584;9.978;2024-02-21T05:46:52;25.27;;;11.57;;
56391;SDS011;76123;53.584;9.978;2024-02-21T05:49:19;28.40;;;11.15;;
56391;SDS011;76123;53.584;9.978;2024-02-21T05:51:46;24.67;;;10.63;;
56391;SDS011;76123;53.584;9.978;2024-02-21T05:54:13;24.38;;;10.75;;
56391;SDS011;76123;53.584;9.978;2024-02-21T05:56:43;23.17;;;10.90;;
56391;SDS011;76123;53.584;9.978;2024-02-21T05:59:10;23.05;;;10.63;;
56391;SDS011;76123;53.584;9.978;2024-02-21T06:01:37;20.58;;;9.82;;
56391;SDS011;76123;53.584;9.978;2024-02-21T06:04:03;19.95;;;9.10;;
56391;SDS011;76123;53.584;9.978;2024-02-21T06:06:32;27.67;;;10.65;;
56391;SDS011;76123;53.584;9.978;2024-02-21T06:08:59;21.70;;;9.90;;
56391;SDS011;76123;53.584;9.978;2024-02-21T06:11:27;22.83;;;9.57;;
56391;SDS011;76123;53.584;9.978;2024-02-21T06:13:54;19.27;;;8.02;;
56391;SDS011;76123;53.584;9.978;2024-02-21T06:16:21;18.33;;;7.40;;
56391;SDS011;76123;53.584;9.978;2024-02-21T06:18:47;21.00;;;8.18;;
56391;SDS011;76123;53.584;9.978;2024-02-21T06:21:14;18.67;;;7.55;;
56391;SDS011;76123;53.584;9.978;2024-02-21T06:23:43;15.30;;;6.90;;
56391;SDS011;76123;53.584;9.978;2024-02-21T06:26:09;15.27;;;7.25;;
56391;SDS011;76123;53.584;9.978;2024-02-21T06:28:36;16.88;;;7.20;;
56391;SDS011;76123;53.584;9.978;2024-02-21T06:31:03;16.65;;;7.72;;
56391;SDS011;76123;53.584;9.978;2024-02-21T06:33:29;19.63;;;7.72;;
56391;SDS011;76123;53.584;9.978;2024-02-21T06:35:56;15.70;;;7.45;;
56391;SDS011;76123;53.584;9.978;2024-02-21T06:38:22;20.10;;;8.05;;
56391;SDS011;76123;53.584;9.978;2024-02-21T06:40:50;13.18;;;6.45;;
56391;SDS011;76123;53.584;9.978;2024-02-21T06:43:18;14.23;;;6.57;;
56391;SDS011;76123;53.584;9.978;2024-02-21T06:45:45;12.45;;;6.00;;
56391;SDS011;76123;53.584;9.978;2024-02-21T06:48:15;15.20;;;6.53;;
56391;SDS011;76123;53.584;9.978;2024-02-21T06:50:42;21.35;;;6.30;;
56391;SDS011;76123;53.584;9.978;2024-02-21T06:53:09;13.70;;;6.10;;
56391;SDS011;76123;53.584;9.978;2024-02-21T06:55:35;10.85;;;5.20;;
56391;SDS011;76123;53.584;9.978;2024-02-21T06:58:03;12.25;;;5.55;;
56391;SDS011;76123;53.584;9.978;2024-02-21T07:00:30;14.35;;;5.97;;
56391;SDS011;76123;53.584;9.978;2024-02-21T07:02:56;12.30;;;5.57;;
56391;SDS011;76123;53.584;9.978;2024-02-21T07:05:23;12.70;;;5.95;;
56391;SDS011;76123;53.584;9.978;2024-02-21T07:07:50;15.73;;;5.53;;
56391;SDS011;76123;53.584;9.978;2024-02-21T07:10:16;13.07;;;5.50;;
56391;SDS011;76123;53.584;9.978;2024-02-21T07:12:43;15.32;;;6.05;;
56391;SDS011;76123;53.584;9.978;2024-02-21T07:15:10;14.38;;;6.20;;
56391;SDS011;76123;53.584;9.978;2024-02-21T07:17:37;16.48;;;6.72;;
56391;SDS011;76123;53.584;9.978;2024-02-21T07:20:05;14.43;;;6.97;;
56391;SDS011;76123;53.584;9.978;2024-02-21T07:22:32;14.60;;;7.22;;
56391;SDS011;76123;53.584;9.978;2024-02-21T07:24:59;16.42;;;7.43;;
56391;SDS011;76123;53.584;9.978;2024-02-21T07:27:28;17.77;;;7.35;;
56391;SDS011;76123;53.584;9.978;2024-02-21T07:29:56;15.63;;;6.90;;
56391;SDS011;76123;53.584;9.978;2024-02-21T07:32:25;15.70;;;6.55;;
56391;SDS011;76123;53.584;9.978;2024-02-21T07:34:51;15.13;;;6.93;;
56391;SDS011;76123;53.584;9.978;2024-02-21T07:37:18;17.13;;;7.25;;
56391;SDS011;76123;53.584;9.978;2024-02-21T07:39:44;15.40;;;7.03;;
56391;SDS011;76123;53.584;9.978;2024-02-21T07:42:11;16.38;;;7.65;;
56391;SDS011;76123;53.584;9.978;2024-02-21T07:44:38;15.27;;;6.43;;
56391;SDS011;76123;53.584;9.978;2024-02-21T07:47:04;16.08;;;6.55;;
56391;SDS011;76123;53.584;9.978;2024-02-21T07:49:40;13.05;;;5.90;;
56391;SDS011;76123;53.584;9.978;2024-02-21T07:52:07;11.15;;;4.78;;
56391;SDS011;76123;53.584;9.978;2024-02-21T07:54:33;13.27;;;5.60;;
56391;SDS011;76123;53.584;9.978;2024-02-21T07:57:00;12.90;;;5.90;;
56391;SDS011;76123;53.584;9.978;2024-02-21T07:59:27;13.93;;;5.70;;
56391;SDS011;76123;53.584;9.978;2024-02-21T08:01:56;10.13;;;4.68;;
56391;SDS011;76123;53.584;9.978;2024-02-21T08:04:22;10.50;;;4.30;;
56391;SDS011;76123;53.584;9.978;2024-02-21T08:06:52;13.00;;;5.25;;
56391;SDS011;76123;53.584;9.978;2024-02-21T08:09:20;12.48;;;5.30;;
56391;SDS011;76123;53.584;9.978;2024-02-21T08:11:47;16.45;;;5.35;;
56391;SDS011;76123;53.584;9.978;2024-02-21T08:14:15;13.20;;;4.57;;
56391;SDS011;76123;53.584;9.978;2024-02-21T08:16:42;16.63;;;4.68;;
56391;SDS011;76123;53.584;9.978;2024-02-21T08:19:08;18.92;;;4.35;;
56391;SDS011;76123;53.584;9.978;2024-02-21T08:21:35;16.75;;;4.00;;
56391;SDS011;76123;53.584;9.978;2024-02-21T08:24:03;16.23;;;3.83;;
56391;SDS011;76123;53.584;9.978;2024-02-21T08:26:31;15.60;;;3.63;;
56391;SDS011;76123;53.584;9.978;2024-02-21T08:28:57;16.60;;;3.45;;
56391;SDS011;76123;53.584;9.978;2024-02-21T08:31:25;16.70;;;3.95;;
56391;SDS011;76123;53.584;9.978;2024-02-21T08:33:56;18.23;;;3.97;;
56391;SDS011;76123;53.584;9.978;2024-02-21T08:36:27;19.17;;;3.90;;
56391;SDS011;76123;53.584;9.978;2024-02-21T08:38:54;18.42;;;3.90;;
56391;SDS011;76123;53.584;9.978;2024-02-21T08:41:22;21.48;;;4.40;;
56391;SDS011;76123;53.584;9.978;2024-02-21T08:43:49;21.17;;;4.30;;
56391;SDS011;76123;53.584;9.978;2024-02-21T08:46:16;20.70;;;5.03;;
56391;SDS011;76123;53.584;9.978;2024-02-21T08:48:43;22.15;;;4.22;;
56391;SDS011;76123;53.584;9.978;2024-02-21T08:51:10;18.10;;;4.15;;
56391;SDS011;76123;53.584;9.978;2024-02-21T08:53:38;22.30;;;5.53;;
56391;SDS011;76123;53.584;9.978;2024-02-21T08:56:05;20.52;;;4.68;;
56391;SDS011;76123;53.584;9.978;2024-02-21T08:58:34;15.32;;;4.57;;
56391;SDS011;76123;53.584;9.978;2024-02-21T09:01:01;20.08;;;4.63;;
56391;SDS011;76123;53.584;9.978;2024-02-21T09:03:30;21.00;;;5.45;;
56391;SDS011;76123;53.584;9.978;2024-02-21T09:05:57;12.73;;;3.75;;
56391;SDS011;76123;53.584;9.978;2024-02-21T09:08:24;17.08;;;4.30;;
56391;SDS011;76123;53.584;9.978;2024-02-21T09:10:50;17.95;;;4.85;;
56391;SDS011;76123;53.584;9.978;2024-02-21T09:13:17;18.77;;;3.85;;
56391;SDS011;76123;53.584;9.978;2024-02-21T09:15:46;12.15;;;3.80;;
56391;SDS011;76123;53.584;9.978;2024-02-21T09:18:13;17.70;;;4.13;;
56391;SDS011;76123;53.584;9.978;2024-02-21T09:20:40;13.43;;;4.00;;
56391;SDS011;76123;53.584;9.978;2024-02-21T09:23:07;17.63;;;3.33;;
56391;SDS011;76123;53.584;9.978;2024-02-21T09:25:33;17.25;;;3.90;;
56391;SDS011;76123;53.584;9.978;2024-02-21T09:28:00;16.60;;;3.75;;
56391;SDS011;76123;53.584;9.978;2024-02-21T09:30:27;19.80;;;3.90;;
56391;SDS011;76123;53.584;9.978;2024-02-21T09:32:56;14.07;;;3.05;;
56391;SDS011;76123;53.584;9.978;2024-02-21T09:35:24;16.05;;;3.70;;
56391;SDS011;76123;53.584;9.978;2024-02-21T09:37:51;17.58;;;4.20;;
56391;SDS011;76123;53.584;9.978;2024-02-21T09:40:18;16.08;;;4.05;;
56391;SDS011;76123;53.584;9.978;2024-02-21T09:42:46;17.00;;;3.55;;
56391;SDS011;76123;53.584;9.978;2024-02-21T09:45:15;13.80;;;3.38;;
56391;SDS011;76123;53.584;9.978;2024-02-21T09:47:50;18.15;;;4.32;;
56391;SDS011;76123;53.584;9.978;2024-02-21T09:50:30;12.98;;;3.65;;
56391;SDS011;76123;53.584;9.978;2024-02-21T09:53:01;15.27;;;3.70;;
56391;SDS011;76123;53.584;9.978;2024-02-21T09:55:29;11.15;;;3.83;;
56391;SDS011;76123;53.584;9.978;2024-02-21T09:57:57;14.60;;;4.03;;
56391;SDS011;76123;53.584;9.978;2024-02-21T10:00:25;15.80;;;4.10;;
56391;SDS011;76123;53.584;9.978;2024-02-21T10:02:52;13.35;;;4.30;;
56391;SDS011;76123;53.584;9.978;2024-02-21T10:05:19;12.77;;;3.70;;
56391;SDS011;76123;53.584;9.978;2024-02-21T10:07:47;8.50;;;3.70;;
56391;SDS011;76123;53.584;9.978;2024-02-21T10:10:15;9.90;;;3.50;;
56391;SDS011;76123;53.584;9.978;2024-02-21T10:12:47;11.10;;;4.68;;
56391;SDS011;76123;53.584;9.978;2024-02-21T10:15:19;10.88;;;4.78;;
56391;SDS011;76123;53.584;9.978;2024-02-21T10:17:46;12.63;;;4.53;;
56391;SDS011;76123;53.584;9.978;2024-02-21T10:20:12;16.63;;;5.57;;
56391;SDS011;76123;53.584;9.978;2024-02-21T10:22:40;12.30;;;6.85;;
56391;SDS011;76123;53.584;9.978;2024-02-21T10:25:08;15.02;;;7.35;;
56391;SDS011;76123;53.584;9.978;2024-02-21T10:27:36;20.80;;;9.40;;
56391;SDS011;76123;53.584;9.978;2024-02-21T10:30:03;21.85;;;10.15;;
56391;SDS011;76123;53.584;9.978;2024-02-21T10:32:30;27.48;;;11.52;;
56391;SDS011;76123;53.584;9.978;2024-02-21T10:35:00;28.33;;;12.82;;
56391;SDS011;76123;53.584;9.978;2024-02-21T10:37:29;28.58;;;13.20;;
56391;SDS011;76123;53.584;9.978;2024-02-21T10:39:56;31.85;;;14.15;;
56391;SDS011;76123;53.584;9.978;2024-02-21T10:42:24;32.40;;;15.30;;
56391;SDS011;76123;53.584;9.978;2024-02-21T10:44:55;38.22;;;15.80;;
56391;SDS011;76123;53.584;9.978;2024-02-21T10:47:26;36.58;;;15.73;;
56391;SDS011;76123;53.584;9.978;2024-02-21T10:49:57;34.90;;;16.77;;
56391;SDS011;76123;53.584;9.978;2024-02-21T10:52:29;34.42;;;16.10;;
56391;SDS011;76123;53.584;9.978;2024-02-21T10:55:04;36.67;;;16.00;;
56391;SDS011;76123;53.584;9.978;2024-02-21T10:57:38;35.17;;;15.05;;
56391;SDS011;76123;53.584;9.978;2024-02-21T11:00:05;34.92;;;16.35;;
56391;SDS011;76123;53.584;9.978;2024-02-21T11:02:35;39.65;;;16.55;;
56391;SDS011;76123;53.584;9.978;2024-02-21T11:05:02;39.83;;;16.42;;
56391;SDS011;76123;53.584;9.978;2024-02-21T11:07:30;38.50;;;15.50;;
56391;SDS011;76123;53.584;9.978;2024-02-21T11:09:58;41.70;;;16.67;;
56391;SDS011;76123;53.584;9.978;2024-02-21T11:12:25;36.05;;;15.55;;
56391;SDS011;76123;53.584;9.978;2024-02-21T11:14:54;33.97;;;15.32;;
56391;SDS011;76123;53.584;9.978;2024-02-21T11:17:30;30.45;;;14.75;;
56391;SDS011;76123;53.584;9.978;2024-02-21T11:19:57;38.05;;;14.90;;
56391;SDS011;76123;53.584;9.978;2024-02-21T11:22:24;31.25;;;14.32;;
56391;SDS011;76123;53.584;9.978;2024-02-21T11:24:54;32.75;;;13.75;;
56391;SDS011;76123;53.584;9.978;2024-02-21T11:27:21;28.05;;;13.40;;
56391;SDS011;76123;53.584;9.978;2024-02-21T11:29:54;30.80;;;12.70;;
56391;SDS011;76123;53.584;9.978;2024-02-21T11:32:25;29.05;;;12.93;;
56391;SDS011;76123;53.584;9.978;2024-02-21T11:34:53;27.90;;;12.02;;
56391;SDS011;76123;53.584;9.978;2024-02-21T11:37:26;28.75;;;12.18;;
56391;SDS011;76123;53.584;9.978;2024-02-21T11:39:54;31.20;;;12.65;;
56391;SDS011;76123;53.584;9.978;2024-02-21T11:42:20;25.10;;;10.77;;
56391;SDS011;76123;53.584;9.978;2024-02-21T11:44:47;26.00;;;10.80;;
56391;SDS011;76123;53.584;9.978;2024-02-21T11:47:15;25.40;;;10.27;;
56391;SDS011;76123;53.584;9.978;2024-02-21T11:49:43;25.00;;;12.13;;
56391;SDS011;76123;53.584;9.978;2024-02-21T11:52:11;24.02;;;10.57;;
56391;SDS011;76123;53.584;9.978;2024-02-21T11:54:40;21.73;;;9.93;;
56391;SDS011;76123;53.584;9.978;2024-02-21T11:57:07;23.20;;;10.18;;
56391;SDS011;76123;53.584;9.978;2024-02-21T11:59:34;22.70;;;9.93;;
56391;SDS011;76123;53.584;9.978;2024-02-21T12:02:01;25.92;;;11.00;;
56391;SDS011;76123;53.584;9.978;2024-02-21T12:04:30;23.65;;;11.25;;
56391;SDS011;76123;53.584;9.978;2024-02-21T12:06:57;22.73;;;10.43;;
56391;SDS011;76123;53.584;9.978;2024-02-21T12:09:24;27.42;;;11.35;;
56391;SDS011;76123;53.584;9.978;2024-02-21T12:11:58;23.27;;;9.93;;
56391;SDS011;76123;53.584;9.978;2024-02-21T12:14:25;22.40;;;10.98;;
56391;SDS011;76123;53.584;9.978;2024-02-21T12:16:53;20.17;;;9.60;;
56391;SDS011;76123;53.584;9.978;2024-02-21T12:19:20;32.33;;;12.27;;
56391;SDS011;76123;53.584;9.978;2024-02-21T12:21:49;20.13;;;9.45;;
56391;SDS011;76123;53.584;9.978;2024-02-21T12:24:17;22.73;;;10.27;;
56391;SDS011;76123;53.584;9.978;2024-02-21T12:26:48;24.73;;;10.10;;
56391;SDS011;76123;53.584;9.978;2024-02-21T12:29:14;23.20;;;10.05;;
56391;SDS011;76123;53.584;9.978;2024-02-21T12:31:41;22.85;;;10.25;;
56391;SDS011;76123;53.584;9.978;2024-02-21T12:34:08;24.50;;;9.93;;
56391;SDS011;76123;53.584;9.978;2024-02-21T12:36:36;20.75;;;9.27;;
56391;SDS011;76123;53.584;9.978;2024-02-21T12:39:08;21.25;;;9.57;;
56391;SDS011;76123;53.584;9.978;2024-02-21T12:41:35;24.35;;;10.07;;
56391;SDS011;76123;53.584;9.978;2024-02-21T12:44:03;23.40;;;10.43;;
56391;SDS011;76123;53.584;9.978;2024-02-21T12:46:32;23.70;;;10.80;;
56391;SDS011;76123;53.584;9.978;2024-02-21T12:48:58;24.25;;;10.55;;
56391;SDS011;76123;53.584;9.978;2024-02-21T12:51:25;25.95;;;11.30;;
56391;SDS011;76123;53.584;9.978;2024-02-21T12:53:51;26.50;;;11.25;;
56391;SDS011;76123;53.584;9.978;2024-02-21T12:56:19;28.75;;;11.32;;
56391;SDS011;76123;53.584;9.978;2024-02-21T12:58:46;27.00;;;11.00;;
56391;SDS011;76123;53.584;9.978;2024-02-21T13:01:13;27.00;;;11.55;;
56391;SDS011;76123;53.584;9.978;2024-02-21T13:03:39;24.98;;;11.25;;
56391;SDS011;76123;53.584;9.978;2024-02-21T13:06:06;26.08;;;11.45;;
56391;SDS011;76123;53.584;9.978;2024-02-21T13:08:35;25.90;;;12.10;;
56391;SDS011;76123;53.584;9.978;2024-02-21T13:11:02;27.65;;;12.32;;
56391;SDS011;76123;53.584;9.978;2024-02-21T13:13:30;27.60;;;11.98;;
56391;SDS011;76123;53.584;9.978;2024-02-21T13:15:57;25.45;;;11.55;;
56391;SDS011;76123;53.584;9.978;2024-02-21T13:18:25;30.38;;;12.20;;
56391;SDS011;76123;53.584;9.978;2024-02-21T13:20:52;25.02;;;11.63;;
56391;SDS011;76123;53.584;9.978;2024-02-21T13:23:19;24.92;;;11.45;;
56391;SDS011;76123;53.584;9.978;2024-02-21T13:25:46;26.13;;;11.88;;
56391;SDS011;76123;53.584;9.978;2024-02-21T13:28:14;25.75;;;11.35;;
56391;SDS011;76123;53.584;9.978;2024-02-21T13:30:42;25.23;;;11.93;;
56391;SDS011;76123;53.584;9.978;2024-02-21T13:33:09;25.70;;;12.48;;
56391;SDS011;76123;53.584;9.978;2024-02-21T13:35:36;22.95;;;10.50;;
56391;SDS011;76123;53.584;9.978;2024-02-21T13:38:03;29.77;;;12.40;;
56391;SDS011;76123;53.584;9.978;2024-02-21T13:40:30;26.65;;;11.73;;
56391;SDS011;76123;53.584;9.978;2024-02-21T13:42:57;22.88;;;10.82;;
56391;SDS011;76123;53.584;9.978;2024-02-21T13:45:24;26.45;;;10.85;;
56391;SDS011;76123;53.584;9.978;2024-02-21T13:47:52;25.40;;;10.38;;
56391;SDS011;76123;53.584;9.978;2024-02-21T13:50:18;22.13;;;10.57;;
56391;SDS011;76123;53.584;9.978;2024-02-21T13:52:48;25.13;;;11.15;;
56391;SDS011;76123;53.584;9.978;2024-02-21T13:55:14;28.60;;;11.43;;
56391;SDS011;76123;53.584;9.978;2024-02-21T13:57:41;22.20;;;10.70;;
56391;SDS011;76123;53.584;9.978;2024-02-21T14:00:08;21.45;;;10.73;;
56391;SDS011;76123;53.584;9.978;2024-02-21T14:02:35;21.08;;;9.82;;
56391;SDS011;76123;53.584;9.978;2024-02-21T14:05:04;24.02;;;9.50;;
56391;SDS011;76123;53.584;9.978;2024-02-21T14:07:31;25.17;;;10.50;;
56391;SDS011;76123;53.584;9.978;2024-02-21T14:09:58;22.60;;;10.68;;
56391;SDS011;76123;53.584;9.978;2024-02-21T14:12:25;21.23;;;9.93;;
56391;SDS011;76123;53.584;9.978;2024-02-21T14:14:51;21.42;;;10.43;;
56391;SDS011;76123;53.584;9.978;2024-02-21T14:17:18;23.63;;;10.32;;
56391;SDS011;76123;53.584;9.978;2024-02-21T14:19:45;20.33;;;9.50;;
56391;SDS011;76123;53.584;9.978;2024-02-21T14:22:13;16.15;;;8.80;;
56391;SDS011;76123;53.584;9.978;2024-02-21T14:24:39;20.95;;;9.95;;
56391;SDS011;76123;53.584;9.978;2024-02-21T14:27:07;19.08;;;9.18;;